sensor_id;sensor_type;location;lat;lon;timestamp;P1;durP1;ratioP1;P2;durP2;ratioP2
48805;SDS011;34625;47.176;27.548;2023-01-15T00:01:22;15.63;;;8.63;;
48805;SDS011;34625;47.176;27.548;2023-01-15T00:03:53;14.10;;;9.18;;
48805;SDS011;34625;47.176;27.548;2023-01-15T00:06:20;16.98;;;9.57;;
48805;SDS011;34625;47.176;27.548;2023-01-15T00:08:48;16.48;;;9.48;;
48805;SDS011;34625;47.176;27.548;2023-01-15T00:11:14;13.95;;;9.02;;
48805;SDS011;34625;47.176;27.548;2023-01-15T00:13:41;17.40;;;9.85;;
48805;SDS011;34625;47.176;27.548;2023-01-15T00:16:09;15.18;;;8.27;;
48805;SDS011;34625;47.176;27.548;2023-01-15T00:18:36;16.25;;;9.23;;
48805;SDS011;34625;47.176;27.548;2023-01-15T00:21:04;14.95;;;8.82;;
48805;SDS011;34625;47.176;27.548;2023-01-15T00:23:31;16.75;;;9.52;;
48805;SDS011;34625;47.176;27.548;2023-01-15T00:26:18;14.48;;;8.70;;
48805;SDS011;34625;47.176;27.548;2023-01-15T00:29:04;15.40;;;9.40;;
48805;SDS011;34625;47.176;27.548;2023-01-15T00:31:31;16.58;;;9.70;;
48805;SDS011;34625;47.176;27.548;2023-01-15T00:33:59;14.43;;;9.18;;
48805;SDS011;34625;47.176;27.548;2023-01-15T00:36:26;18.95;;;9.80;;
48805;SDS011;34625;47.176;27.548;2023-01-15T00:38:52;18.58;;;9.93;;
48805;SDS011;34625;47.176;27.548;2023-01-15T00:41:18;18.02;;;9.55;;
48805;SDS011;34625;47.176;27.548;2023-01-15T00:43:44;18.75;;;9.65;;
48805;SDS011;34625;47.176;27.548;2023-01-15T00:46:11;14.27;;;8.13;;
48805;SDS011;34625;47.176;27.548;2023-01-15T00:48:38;12.90;;;7.70;;
48805;SDS011;34625;47.176;27.548;2023-01-15T00:51:04;15.10;;;8.48;;
48805;SDS011;34625;47.176;27.548;2023-01-15T00:53:31;13.18;;;8.02;;
48805;SDS011;34625;47.176;27.548;2023-01-15T00:55:57;13.85;;;7.78;;
48805;SDS011;34625;47.176;27.548;2023-01-15T00:58:23;14.07;;;7.63;;
48805;SDS011;34625;47.176;27.548;2023-01-15T01:00:53;11.05;;;6.90;;
48805;SDS011;34625;47.176;27.548;2023-01-15T01:05:48;12.65;;;7.38;;
48805;SDS011;34625;47.176;27.548;2023-01-15T01:08:14;12.02;;;6.90;;
48805;SDS011;34625;47.176;27.548;2023-01-15T01:10:41;9.15;;;6.18;;
48805;SDS011;34625;47.176;27.548;2023-01-15T01:13:07;12.60;;;7.35;;
48805;SDS011;34625;47.176;27.548;2023-01-15T01:15:34;12.38;;;7.35;;
48805;SDS011;34625;47.176;27.548;2023-01-15T01:18:03;14.60;;;7.57;;
48805;SDS011;34625;47.176;27.548;2023-01-15T01:20:31;14.40;;;7.63;;
48805;SDS011;34625;47.176;27.548;2023-01-15T01:22:57;11.65;;;6.88;;
48805;SDS011;34625;47.176;27.548;2023-01-15T01:25:23;12.82;;;8.00;;
48805;SDS011;34625;47.176;27.548;2023-01-15T01:27:49;10.77;;;7.03;;
48805;SDS011;34625;47.176;27.548;2023-01-15T01:30:15;13.88;;;6.95;;
48805;SDS011;34625;47.176;27.548;2023-01-15T01:32:44;13.23;;;8.23;;
48805;SDS011;34625;47.176;27.548;2023-01-15T01:35:10;13.25;;;7.53;;
48805;SDS011;34625;47.176;27.548;2023-01-15T01:37:36;14.93;;;7.35;;
48805;SDS011;34625;47.176;27.548;2023-01-15T01:40:03;13.40;;;7.03;;
48805;SDS011;34625;47.176;27.548;2023-01-15T01:42:30;13.20;;;7.28;;
48805;SDS011;34625;47.176;27.548;2023-01-15T01:45:00;13.88;;;7.18;;
48805;SDS011;34625;47.176;27.548;2023-01-15T01:47:38;13.18;;;7.18;;
48805;SDS011;34625;47.176;27.548;2023-01-15T01:50:06;12.40;;;7.50;;
48805;SDS011;34625;47.176;27.548;2023-01-15T01:52:42;10.13;;;6.78;;
48805;SDS011;34625;47.176;27.548;2023-01-15T01:55:29;11.75;;;6.90;;
48805;SDS011;34625;47.176;27.548;2023-01-15T01:57:58;10.65;;;6.38;;
48805;SDS011;34625;47.176;27.548;2023-01-15T02:00:26;13.40;;;7.45;;
48805;SDS011;34625;47.176;27.548;2023-01-15T02:02:54;12.35;;;6.72;;
48805;SDS011;34625;47.176;27.548;2023-01-15T02:05:24;13.18;;;7.18;;
48805;SDS011;34625;47.176;27.548;2023-01-15T02:07:58;16.27;;;7.80;;
48805;SDS011;34625;47.176;27.548;2023-01-15T02:10:26;12.30;;;6.85;;
48805;SDS011;34625;47.176;27.548;2023-01-15T02:12:54;12.40;;;7.03;;
48805;SDS011;34625;47.176;27.548;2023-01-15T02:15:37;12.48;;;7.00;;
48805;SDS011;34625;47.176;27.548;2023-01-15T02:18:11;14.60;;;6.60;;
48805;SDS011;34625;47.176;27.548;2023-01-15T02:20:52;11.77;;;7.07;;
48805;SDS011;34625;47.176;27.548;2023-01-15T02:28:59;12.05;;;6.60;;
48805;SDS011;34625;47.176;27.548;2023-01-15T02:31:33;10.77;;;6.47;;
48805;SDS011;34625;47.176;27.548;2023-01-15T02:34:11;13.07;;;6.85;;
48805;SDS011;34625;47.176;27.548;2023-01-15T02:36:47;13.02;;;7.22;;
48805;SDS011;34625;47.176;27.548;2023-01-15T02:39:23;12.90;;;7.07;;
48805;SDS011;34625;47.176;27.548;2023-01-15T02:41:53;13.95;;;7.13;;
48805;SDS011;34625;47.176;27.548;2023-01-15T02:44:28;12.23;;;7.35;;
48805;SDS011;34625;47.176;27.548;2023-01-15T02:46:58;13.80;;;7.25;;
48805;SDS011;34625;47.176;27.548;2023-01-15T02:49:27;10.30;;;6.75;;
48805;SDS011;34625;47.176;27.548;2023-01-15T02:52:02;11.05;;;6.38;;
48805;SDS011;34625;47.176;27.548;2023-01-15T02:54:40;13.02;;;7.03;;
48805;SDS011;34625;47.176;27.548;2023-01-15T02:57:12;15.80;;;6.95;;
48805;SDS011;34625;47.176;27.548;2023-01-15T02:59:40;13.18;;;7.15;;
48805;SDS011;34625;47.176;27.548;2023-01-15T03:02:11;12.02;;;6.65;;
48805;SDS011;34625;47.176;27.548;2023-01-15T03:07:33;12.25;;;6.05;;
48805;SDS011;34625;47.176;27.548;2023-01-15T03:10:04;10.88;;;6.18;;
48805;SDS011;34625;47.176;27.548;2023-01-15T03:18:28;11.82;;;6.70;;
48805;SDS011;34625;47.176;27.548;2023-01-15T03:21:03;11.88;;;7.00;;
48805;SDS011;34625;47.176;27.548;2023-01-15T03:23:34;12.75;;;6.07;;
48805;SDS011;34625;47.176;27.548;2023-01-15T03:26:05;11.75;;;6.40;;
48805;SDS011;34625;47.176;27.548;2023-01-15T03:28:35;12.02;;;5.75;;
48805;SDS011;34625;47.176;27.548;2023-01-15T03:31:04;9.82;;;5.80;;
48805;SDS011;34625;47.176;27.548;2023-01-15T03:33:30;9.23;;;5.60;;
48805;SDS011;34625;47.176;27.548;2023-01-15T03:35:58;9.82;;;5.63;;
48805;SDS011;34625;47.176;27.548;2023-01-15T03:38:40;8.45;;;4.88;;
48805;SDS011;34625;47.176;27.548;2023-01-15T03:44:52;9.20;;;4.93;;
48805;SDS011;34625;47.176;27.548;2023-01-15T03:50:27;8.02;;;4.57;;
48805;SDS011;34625;47.176;27.548;2023-01-15T03:53:37;8.32;;;5.07;;
48805;SDS011;34625;47.176;27.548;2023-01-15T03:56:02;7.75;;;4.80;;
48805;SDS011;34625;47.176;27.548;2023-01-15T03:58:42;6.45;;;4.38;;
48805;SDS011;34625;47.176;27.548;2023-01-15T04:01:20;9.73;;;5.22;;
48805;SDS011;34625;47.176;27.548;2023-01-15T04:03:51;7.50;;;4.75;;
48805;SDS011;34625;47.176;27.548;2023-01-15T04:06:22;8.95;;;4.93;;
48805;SDS011;34625;47.176;27.548;2023-01-15T04:08:51;11.10;;;5.22;;
48805;SDS011;34625;47.176;27.548;2023-01-15T04:11:21;7.38;;;4.90;;
48805;SDS011;34625;47.176;27.548;2023-01-15T04:13:58;11.88;;;4.90;;
48805;SDS011;34625;47.176;27.548;2023-01-15T04:16:30;7.88;;;4.80;;
48805;SDS011;34625;47.176;27.548;2023-01-15T04:18:57;9.38;;;5.35;;
48805;SDS011;34625;47.176;27.548;2023-01-15T04:21:24;7.78;;;5.00;;
48805;SDS011;34625;47.176;27.548;2023-01-15T04:23:50;10.48;;;5.22;;
48805;SDS011;34625;47.176;27.548;2023-01-15T04:26:17;9.85;;;5.43;;
48805;SDS011;34625;47.176;27.548;2023-01-15T04:28:43;7.15;;;4.78;;
48805;SDS011;34625;47.176;27.548;2023-01-15T04:31:09;9.73;;;5.03;;
48805;SDS011;34625;47.176;27.548;2023-01-15T04:33:35;7.60;;;4.85;;
48805;SDS011;34625;47.176;27.548;2023-01-15T04:36:01;9.23;;;5.93;;
48805;SDS011;34625;47.176;27.548;2023-01-15T04:38:28;10.90;;;5.90;;
48805;SDS011;34625;47.176;27.548;2023-01-15T04:40:54;10.70;;;4.97;;
48805;SDS011;34625;47.176;27.548;2023-01-15T04:43:42;9.55;;;5.43;;
48805;SDS011;34625;47.176;27.548;2023-01-15T04:46:27;9.77;;;5.05;;
48805;SDS011;34625;47.176;27.548;2023-01-15T04:48:53;8.35;;;4.28;;
48805;SDS011;34625;47.176;27.548;2023-01-15T04:51:19;10.32;;;5.47;;
48805;SDS011;34625;47.176;27.548;2023-01-15T04:53:45;9.15;;;5.95;;
48805;SDS011;34625;47.176;27.548;2023-01-15T04:56:11;8.90;;;4.60;;
48805;SDS011;34625;47.176;27.548;2023-01-15T04:58:37;11.85;;;5.43;;
48805;SDS011;34625;47.176;27.548;2023-01-15T05:01:09;7.05;;;5.00;;
48805;SDS011;34625;47.176;27.548;2023-01-15T05:03:39;10.20;;;5.38;;
48805;SDS011;34625;47.176;27.548;2023-01-15T05:06:05;7.95;;;4.75;;
48805;SDS011;34625;47.176;27.548;2023-01-15T05:08:31;7.00;;;4.85;;
48805;SDS011;34625;47.176;27.548;2023-01-15T05:11:01;7.13;;;4.72;;
48805;SDS011;34625;47.176;27.548;2023-01-15T05:13:28;11.10;;;5.25;;
48805;SDS011;34625;47.176;27.548;2023-01-15T05:16:07;10.45;;;5.57;;
48805;SDS011;34625;47.176;27.548;2023-01-15T05:18:44;9.02;;;5.55;;
48805;SDS011;34625;47.176;27.548;2023-01-15T05:21:17;11.00;;;6.15;;
48805;SDS011;34625;47.176;27.548;2023-01-15T05:23:52;8.60;;;5.60;;
48805;SDS011;34625;47.176;27.548;2023-01-15T05:26:20;8.38;;;5.53;;
48805;SDS011;34625;47.176;27.548;2023-01-15T05:28:46;8.10;;;5.20;;
48805;SDS011;34625;47.176;27.548;2023-01-15T05:31:16;9.05;;;5.03;;
48805;SDS011;34625;47.176;27.548;2023-01-15T05:33:43;9.43;;;5.45;;
48805;SDS011;34625;47.176;27.548;2023-01-15T05:36:12;10.73;;;5.65;;
48805;SDS011;34625;47.176;27.548;2023-01-15T05:38:40;11.38;;;6.00;;
48805;SDS011;34625;47.176;27.548;2023-01-15T05:41:07;9.27;;;5.38;;
48805;SDS011;34625;47.176;27.548;2023-01-15T05:43:54;8.90;;;5.07;;
48805;SDS011;34625;47.176;27.548;2023-01-15T05:46:21;9.43;;;5.05;;
48805;SDS011;34625;47.176;27.548;2023-01-15T05:48:47;7.22;;;5.03;;
48805;SDS011;34625;47.176;27.548;2023-01-15T05:51:14;9.70;;;5.25;;
48805;SDS011;34625;47.176;27.548;2023-01-15T05:53:40;9.35;;;5.32;;
48805;SDS011;34625;47.176;27.548;2023-01-15T05:56:06;6.68;;;4.30;;
48805;SDS011;34625;47.176;27.548;2023-01-15T05:58:32;6.03;;;4.40;;
48805;SDS011;34625;47.176;27.548;2023-01-15T06:00:58;5.75;;;4.60;;
48805;SDS011;34625;47.176;27.548;2023-01-15T06:03:24;7.50;;;4.65;;
48805;SDS011;34625;47.176;27.548;2023-01-15T06:05:52;7.45;;;4.93;;
48805;SDS011;34625;47.176;27.548;2023-01-15T06:08:18;7.22;;;4.93;;
48805;SDS011;34625;47.176;27.548;2023-01-15T06:10:44;8.75;;;4.93;;
48805;SDS011;34625;47.176;27.548;2023-01-15T06:13:11;8.00;;;4.85;;
48805;SDS011;34625;47.176;27.548;2023-01-15T06:15:38;7.80;;;4.00;;
48805;SDS011;34625;47.176;27.548;2023-01-15T06:18:04;8.02;;;4.90;;
48805;SDS011;34625;47.176;27.548;2023-01-15T06:20:30;8.75;;;4.88;;
48805;SDS011;34625;47.176;27.548;2023-01-15T06:22:56;9.60;;;5.18;;
48805;SDS011;34625;47.176;27.548;2023-01-15T06:25:22;9.88;;;5.80;;
48805;SDS011;34625;47.176;27.548;2023-01-15T06:27:48;10.68;;;5.35;;
48805;SDS011;34625;47.176;27.548;2023-01-15T06:30:14;9.52;;;4.95;;
48805;SDS011;34625;47.176;27.548;2023-01-15T06:32:41;7.32;;;4.38;;
48805;SDS011;34625;47.176;27.548;2023-01-15T06:35:07;9.63;;;5.10;;
48805;SDS011;34625;47.176;27.548;2023-01-15T06:37:33;9.50;;;4.82;;
48805;SDS011;34625;47.176;27.548;2023-01-15T06:39:59;7.28;;;4.75;;
48805;SDS011;34625;47.176;27.548;2023-01-15T06:42:25;10.13;;;5.28;;
48805;SDS011;34625;47.176;27.548;2023-01-15T06:45:10;7.25;;;5.22;;
48805;SDS011;34625;47.176;27.548;2023-01-15T06:47:55;8.70;;;6.57;;
48805;SDS011;34625;47.176;27.548;2023-01-15T06:50:22;7.25;;;5.85;;
48805;SDS011;34625;47.176;27.548;2023-01-15T06:52:50;7.43;;;5.45;;
48805;SDS011;34625;47.176;27.548;2023-01-15T06:55:16;8.52;;;6.95;;
48805;SDS011;34625;47.176;27.548;2023-01-15T06:57:43;7.15;;;3.80;;
48805;SDS011;34625;47.176;27.548;2023-01-15T07:00:10;6.53;;;4.50;;
48805;SDS011;34625;47.176;27.548;2023-01-15T07:02:37;5.85;;;4.20;;
48805;SDS011;34625;47.176;27.548;2023-01-15T07:05:05;7.22;;;4.25;;
48805;SDS011;34625;47.176;27.548;2023-01-15T07:07:32;6.72;;;4.03;;
48805;SDS011;34625;47.176;27.548;2023-01-15T07:09:58;0.60;;;0.57;;
48805;SDS011;34625;47.176;27.548;2023-01-15T07:12:25;1.70;;;1.17;;
48805;SDS011;34625;47.176;27.548;2023-01-15T07:14:51;9.20;;;3.67;;
48805;SDS011;34625;47.176;27.548;2023-01-15T07:17:18;0.95;;;0.95;;
48805;SDS011;34625;47.176;27.548;2023-01-15T07:19:44;3.53;;;2.58;;
48805;SDS011;34625;47.176;27.548;2023-01-15T07:22:11;1.15;;;1.10;;
48805;SDS011;34625;47.176;27.548;2023-01-15T07:24:37;6.82;;;4.13;;
48805;SDS011;34625;47.176;27.548;2023-01-15T07:27:03;8.70;;;4.47;;
48805;SDS011;34625;47.176;27.548;2023-01-15T07:29:30;5.78;;;3.17;;
48805;SDS011;34625;47.176;27.548;2023-01-15T07:31:56;5.00;;;3.67;;
48805;SDS011;34625;47.176;27.548;2023-01-15T07:34:22;4.45;;;3.55;;
48805;SDS011;34625;47.176;27.548;2023-01-15T07:36:48;3.65;;;2.55;;
48805;SDS011;34625;47.176;27.548;2023-01-15T07:39:14;5.97;;;3.90;;
48805;SDS011;34625;47.176;27.548;2023-01-15T07:41:41;5.95;;;3.67;;
48805;SDS011;34625;47.176;27.548;2023-01-15T07:44:26;5.70;;;3.92;;
48805;SDS011;34625;47.176;27.548;2023-01-15T07:50:06;5.88;;;4.03;;
48805;SDS011;34625;47.176;27.548;2023-01-15T07:52:59;5.80;;;3.40;;
48805;SDS011;34625;47.176;27.548;2023-01-15T07:55:25;7.35;;;3.92;;
48805;SDS011;34625;47.176;27.548;2023-01-15T07:57:51;5.38;;;3.65;;
48805;SDS011;34625;47.176;27.548;2023-01-15T08:00:19;4.93;;;3.90;;
48805;SDS011;34625;47.176;27.548;2023-01-15T08:02:46;4.88;;;2.95;;
48805;SDS011;34625;47.176;27.548;2023-01-15T08:05:15;6.55;;;3.70;;
48805;SDS011;34625;47.176;27.548;2023-01-15T08:07:41;5.25;;;3.60;;
48805;SDS011;34625;47.176;27.548;2023-01-15T08:10:09;4.00;;;3.03;;
48805;SDS011;34625;47.176;27.548;2023-01-15T08:12:36;4.78;;;3.15;;
48805;SDS011;34625;47.176;27.548;2023-01-15T08:15:21;5.70;;;3.53;;
48805;SDS011;34625;47.176;27.548;2023-01-15T08:17:47;3.35;;;2.55;;
48805;SDS011;34625;47.176;27.548;2023-01-15T08:20:15;4.78;;;3.00;;
48805;SDS011;34625;47.176;27.548;2023-01-15T08:22:46;6.15;;;3.47;;
48805;SDS011;34625;47.176;27.548;2023-01-15T08:25:14;5.18;;;3.60;;
48805;SDS011;34625;47.176;27.548;2023-01-15T08:27:41;4.68;;;3.10;;
48805;SDS011;34625;47.176;27.548;2023-01-15T08:30:09;4.45;;;3.50;;
48805;SDS011;34625;47.176;27.548;2023-01-15T08:32:40;10.63;;;4.43;;
48805;SDS011;34625;47.176;27.548;2023-01-15T08:35:07;6.10;;;3.70;;
48805;SDS011;34625;47.176;27.548;2023-01-15T08:37:33;5.55;;;3.10;;
48805;SDS011;34625;47.176;27.548;2023-01-15T08:40:00;4.60;;;3.40;;
48805;SDS011;34625;47.176;27.548;2023-01-15T08:42:26;4.40;;;3.08;;
48805;SDS011;34625;47.176;27.548;2023-01-15T08:44:52;4.80;;;3.00;;
48805;SDS011;34625;47.176;27.548;2023-01-15T08:47:18;4.85;;;3.25;;
48805;SDS011;34625;47.176;27.548;2023-01-15T08:49:45;4.00;;;3.38;;
48805;SDS011;34625;47.176;27.548;2023-01-15T08:52:14;4.82;;;3.10;;
48805;SDS011;34625;47.176;27.548;2023-01-15T08:54:41;4.85;;;2.88;;
48805;SDS011;34625;47.176;27.548;2023-01-15T08:57:08;4.15;;;3.67;;
48805;SDS011;34625;47.176;27.548;2023-01-15T08:59:36;4.57;;;3.28;;
48805;SDS011;34625;47.176;27.548;2023-01-15T09:02:02;4.13;;;3.13;;
48805;SDS011;34625;47.176;27.548;2023-01-15T09:04:28;5.22;;;3.45;;
48805;SDS011;34625;47.176;27.548;2023-01-15T09:06:54;2.92;;;2.28;;
48805;SDS011;34625;47.176;27.548;2023-01-15T09:09:20;3.95;;;3.08;;
48805;SDS011;34625;47.176;27.548;2023-01-15T09:11:46;5.30;;;3.05;;
48805;SDS011;34625;47.176;27.548;2023-01-15T09:14:12;4.30;;;2.92;;
48805;SDS011;34625;47.176;27.548;2023-01-15T09:16:39;5.50;;;3.15;;
48805;SDS011;34625;47.176;27.548;2023-01-15T09:19:06;4.22;;;2.95;;
48805;SDS011;34625;47.176;27.548;2023-01-15T09:21:32;4.25;;;2.60;;
48805;SDS011;34625;47.176;27.548;2023-01-15T09:23:59;2.42;;;1.73;;
48805;SDS011;34625;47.176;27.548;2023-01-15T09:28:59;2.65;;;2.20;;
48805;SDS011;34625;47.176;27.548;2023-01-15T09:31:25;6.07;;;2.63;;
48805;SDS011;34625;47.176;27.548;2023-01-15T09:33:51;3.95;;;2.78;;
48805;SDS011;34625;47.176;27.548;2023-01-15T09:36:26;3.70;;;2.58;;
48805;SDS011;34625;47.176;27.548;2023-01-15T09:38:54;4.63;;;2.58;;
48805;SDS011;34625;47.176;27.548;2023-01-15T09:41:21;3.78;;;2.95;;
48805;SDS011;34625;47.176;27.548;2023-01-15T09:54:44;3.80;;;3.13;;
48805;SDS011;34625;47.176;27.548;2023-01-15T09:57:28;5.15;;;3.28;;
48805;SDS011;34625;47.176;27.548;2023-01-15T09:59:55;4.60;;;3.38;;
48805;SDS011;34625;47.176;27.548;2023-01-15T10:02:34;5.20;;;3.28;;
48805;SDS011;34625;47.176;27.548;2023-01-15T10:10:44;5.97;;;4.05;;
48805;SDS011;34625;47.176;27.548;2023-01-15T10:15:59;5.35;;;3.30;;
48805;SDS011;34625;47.176;27.548;2023-01-15T10:18:26;4.68;;;3.60;;
48805;SDS011;34625;47.176;27.548;2023-01-15T10:26:51;5.03;;;3.35;;
48805;SDS011;34625;47.176;27.548;2023-01-15T10:38:04;4.57;;;3.22;;
48805;SDS011;34625;47.176;27.548;2023-01-15T10:40:59;4.85;;;3.40;;
48805;SDS011;34625;47.176;27.548;2023-01-15T10:46:30;4.85;;;3.47;;
48805;SDS011;34625;47.176;27.548;2023-01-15T10:49:20;7.40;;;3.83;;
48805;SDS011;34625;47.176;27.548;2023-01-15T10:51:48;8.15;;;4.20;;
48805;SDS011;34625;47.176;27.548;2023-01-15T10:57:07;7.65;;;4.80;;
48805;SDS011;34625;47.176;27.548;2023-01-15T10:59:38;5.85;;;4.05;;
48805;SDS011;34625;47.176;27.548;2023-01-15T11:04:51;5.07;;;3.63;;
48805;SDS011;34625;47.176;27.548;2023-01-15T11:07:19;5.10;;;3.75;;
48805;SDS011;34625;47.176;27.548;2023-01-15T11:09:55;7.63;;;4.25;;
48805;SDS011;34625;47.176;27.548;2023-01-15T11:12:24;6.63;;;4.78;;
48805;SDS011;34625;47.176;27.548;2023-01-15T11:15:12;4.95;;;4.05;;
48805;SDS011;34625;47.176;27.548;2023-01-15T11:17:59;6.55;;;3.78;;
48805;SDS011;34625;47.176;27.548;2023-01-15T11:20:45;6.53;;;4.18;;
48805;SDS011;34625;47.176;27.548;2023-01-15T11:23:14;5.65;;;4.38;;
48805;SDS011;34625;47.176;27.548;2023-01-15T11:25:47;8.25;;;4.80;;
48805;SDS011;34625;47.176;27.548;2023-01-15T11:28:15;4.03;;;2.28;;
48805;SDS011;34625;47.176;27.548;2023-01-15T11:30:51;7.80;;;1.80;;
48805;SDS011;34625;47.176;27.548;2023-01-15T11:33:20;4.72;;;4.18;;
48805;SDS011;34625;47.176;27.548;2023-01-15T11:35:49;5.38;;;4.20;;
48805;SDS011;34625;47.176;27.548;2023-01-15T11:38:16;6.07;;;4.43;;
48805;SDS011;34625;47.176;27.548;2023-01-15T11:40:51;15.68;;;4.60;;
48805;SDS011;34625;47.176;27.548;2023-01-15T11:43:19;7.30;;;4.82;;
48805;SDS011;34625;47.176;27.548;2023-01-15T11:46:18;5.22;;;4.22;;
48805;SDS011;34625;47.176;27.548;2023-01-15T11:49:12;17.27;;;5.50;;
48805;SDS011;34625;47.176;27.548;2023-01-15T11:52:04;5.75;;;4.50;;
48805;SDS011;34625;47.176;27.548;2023-01-15T11:54:36;7.85;;;4.13;;
48805;SDS011;34625;47.176;27.548;2023-01-15T11:57:29;6.47;;;3.78;;
48805;SDS011;34625;47.176;27.548;2023-01-15T11:59:57;6.38;;;4.10;;
48805;SDS011;34625;47.176;27.548;2023-01-15T12:02:29;6.65;;;4.65;;
48805;SDS011;34625;47.176;27.548;2023-01-15T12:05:12;8.13;;;5.70;;
48805;SDS011;34625;47.176;27.548;2023-01-15T12:07:54;5.35;;;4.47;;
48805;SDS011;34625;47.176;27.548;2023-01-15T12:29:21;7.97;;;5.32;;
48805;SDS011;34625;47.176;27.548;2023-01-15T12:31:54;7.70;;;5.05;;
48805;SDS011;34625;47.176;27.548;2023-01-15T12:34:41;8.23;;;4.85;;
48805;SDS011;34625;47.176;27.548;2023-01-15T12:37:27;6.95;;;4.72;;
48805;SDS011;34625;47.176;27.548;2023-01-15T12:42:51;6.50;;;5.10;;
48805;SDS011;34625;47.176;27.548;2023-01-15T12:45:48;10.15;;;5.55;;
48805;SDS011;34625;47.176;27.548;2023-01-15T12:50:53;8.98;;;5.00;;
48805;SDS011;34625;47.176;27.548;2023-01-15T13:04:29;7.53;;;4.55;;
48805;SDS011;34625;47.176;27.548;2023-01-15T13:07:04;8.23;;;5.20;;
48805;SDS011;34625;47.176;27.548;2023-01-15T13:12:32;7.60;;;4.55;;
48805;SDS011;34625;47.176;27.548;2023-01-15T13:14:59;7.03;;;4.70;;
48805;SDS011;34625;47.176;27.548;2023-01-15T13:22:55;6.28;;;4.55;;
48805;SDS011;34625;47.176;27.548;2023-01-15T13:33:56;6.00;;;4.45;;
48805;SDS011;34625;47.176;27.548;2023-01-15T13:36:27;7.13;;;4.25;;
48805;SDS011;34625;47.176;27.548;2023-01-15T13:39:02;7.57;;;4.47;;
48805;SDS011;34625;47.176;27.548;2023-01-15T13:41:33;7.90;;;4.65;;
48805;SDS011;34625;47.176;27.548;2023-01-15T13:44:21;7.97;;;4.82;;
48805;SDS011;34625;47.176;27.548;2023-01-15T13:47:04;5.45;;;4.28;;
48805;SDS011;34625;47.176;27.548;2023-01-15T13:49:34;9.85;;;4.80;;
48805;SDS011;34625;47.176;27.548;2023-01-15T13:52:06;5.82;;;4.00;;
48805;SDS011;34625;47.176;27.548;2023-01-15T13:54:53;7.18;;;4.72;;
48805;SDS011;34625;47.176;27.548;2023-01-15T13:57:33;7.68;;;4.75;;
48805;SDS011;34625;47.176;27.548;2023-01-15T14:00:02;7.65;;;4.93;;
48805;SDS011;34625;47.176;27.548;2023-01-15T14:02:37;7.13;;;4.95;;
48805;SDS011;34625;47.176;27.548;2023-01-15T14:07:54;7.07;;;4.95;;
48805;SDS011;34625;47.176;27.548;2023-01-15T14:10:25;7.45;;;4.78;;
48805;SDS011;34625;47.176;27.548;2023-01-15T14:18:36;11.40;;;6.35;;
48805;SDS011;34625;47.176;27.548;2023-01-15T14:24:11;9.43;;;5.53;;
48805;SDS011;34625;47.176;27.548;2023-01-15T14:26:56;11.68;;;6.05;;
48805;SDS011;34625;47.176;27.548;2023-01-15T14:32:15;11.05;;;5.90;;
48805;SDS011;34625;47.176;27.548;2023-01-15T14:34:43;10.20;;;6.25;;
48805;SDS011;34625;47.176;27.548;2023-01-15T14:37:37;9.25;;;5.55;;
48805;SDS011;34625;47.176;27.548;2023-01-15T14:40:20;10.73;;;6.25;;
48805;SDS011;34625;47.176;27.548;2023-01-15T14:42:49;9.90;;;5.90;;
48805;SDS011;34625;47.176;27.548;2023-01-15T14:48:03;11.93;;;6.10;;
48805;SDS011;34625;47.176;27.548;2023-01-15T14:50:49;12.40;;;6.07;;
48805;SDS011;34625;47.176;27.548;2023-01-15T14:59:01;11.65;;;6.25;;
48805;SDS011;34625;47.176;27.548;2023-01-15T15:04:53;12.32;;;6.82;;
48805;SDS011;34625;47.176;27.548;2023-01-15T15:09:59;11.85;;;6.38;;
48805;SDS011;34625;47.176;27.548;2023-01-15T15:12:45;18.63;;;6.85;;
48805;SDS011;34625;47.176;27.548;2023-01-15T15:17:58;10.52;;;6.05;;
48805;SDS011;34625;47.176;27.548;2023-01-15T15:25:46;12.95;;;6.93;;
48805;SDS011;34625;47.176;27.548;2023-01-15T15:28:21;20.88;;;7.65;;
48805;SDS011;34625;47.176;27.548;2023-01-15T15:30:47;10.68;;;6.03;;
48805;SDS011;34625;47.176;27.548;2023-01-15T15:33:18;8.40;;;5.47;;
48805;SDS011;34625;47.176;27.548;2023-01-15T15:35:48;11.13;;;6.63;;
48805;SDS011;34625;47.176;27.548;2023-01-15T15:38:17;11.35;;;6.65;;
48805;SDS011;34625;47.176;27.548;2023-01-15T15:40:46;9.43;;;6.60;;
48805;SDS011;34625;47.176;27.548;2023-01-15T15:43:29;9.45;;;5.28;;
48805;SDS011;34625;47.176;27.548;2023-01-15T15:46:27;9.30;;;5.13;;
48805;SDS011;34625;47.176;27.548;2023-01-15T15:49:12;9.20;;;5.55;;
48805;SDS011;34625;47.176;27.548;2023-01-15T15:54:15;2.42;;;1.73;;
48805;SDS011;34625;47.176;27.548;2023-01-15T16:07:43;10.02;;;7.15;;
48805;SDS011;34625;47.176;27.548;2023-01-15T16:12:51;12.98;;;10.40;;
48805;SDS011;34625;47.176;27.548;2023-01-15T16:15:19;13.50;;;8.75;;
48805;SDS011;34625;47.176;27.548;2023-01-15T16:17:54;8.73;;;7.07;;
48805;SDS011;34625;47.176;27.548;2023-01-15T16:20:21;11.77;;;7.55;;
48805;SDS011;34625;47.176;27.548;2023-01-15T16:22:52;9.98;;;6.63;;
48805;SDS011;34625;47.176;27.548;2023-01-15T16:25:22;11.75;;;7.97;;
48805;SDS011;34625;47.176;27.548;2023-01-15T16:27:55;11.63;;;7.78;;
48805;SDS011;34625;47.176;27.548;2023-01-15T16:30:21;11.77;;;7.95;;
48805;SDS011;34625;47.176;27.548;2023-01-15T16:32:48;14.02;;;10.70;;
48805;SDS011;34625;47.176;27.548;2023-01-15T16:35:20;9.57;;;6.63;;
48805;SDS011;34625;47.176;27.548;2023-01-15T16:37:48;13.55;;;7.78;;
48805;SDS011;34625;47.176;27.548;2023-01-15T16:40:38;12.65;;;7.47;;
48805;SDS011;34625;47.176;27.548;2023-01-15T16:43:06;13.25;;;6.93;;
48805;SDS011;34625;47.176;27.548;2023-01-15T16:46:06;12.23;;;7.55;;
48805;SDS011;34625;47.176;27.548;2023-01-15T16:48:39;11.20;;;7.68;;
48805;SDS011;34625;47.176;27.548;2023-01-15T16:51:32;13.05;;;8.13;;
48805;SDS011;34625;47.176;27.548;2023-01-15T16:54:01;13.00;;;7.80;;
48805;SDS011;34625;47.176;27.548;2023-01-15T16:59:13;11.73;;;7.47;;
48805;SDS011;34625;47.176;27.548;2023-01-15T17:01:44;10.70;;;5.70;;
48805;SDS011;34625;47.176;27.548;2023-01-15T17:04:30;13.93;;;6.93;;
48805;SDS011;34625;47.176;27.548;2023-01-15T17:07:17;9.07;;;5.95;;
48805;SDS011;34625;47.176;27.548;2023-01-15T17:09:51;10.90;;;7.03;;
48805;SDS011;34625;47.176;27.548;2023-01-15T17:12:38;12.15;;;8.10;;
48805;SDS011;34625;47.176;27.548;2023-01-15T17:17:43;12.90;;;8.70;;
48805;SDS011;34625;47.176;27.548;2023-01-15T17:20:12;12.80;;;7.82;;
48805;SDS011;34625;47.176;27.548;2023-01-15T17:22:40;13.02;;;8.30;;
48805;SDS011;34625;47.176;27.548;2023-01-15T17:27:50;12.93;;;7.63;;
48805;SDS011;34625;47.176;27.548;2023-01-15T17:30:19;14.90;;;7.55;;
48805;SDS011;34625;47.176;27.548;2023-01-15T17:32:45;11.60;;;7.22;;
48805;SDS011;34625;47.176;27.548;2023-01-15T17:37:48;16.25;;;7.97;;
48805;SDS011;34625;47.176;27.548;2023-01-15T17:40:14;15.77;;;8.43;;
48805;SDS011;34625;47.176;27.548;2023-01-15T17:42:40;16.15;;;10.18;;
48805;SDS011;34625;47.176;27.548;2023-01-15T17:45:08;13.55;;;8.45;;
48805;SDS011;34625;47.176;27.548;2023-01-15T17:47:47;14.32;;;8.75;;
48805;SDS011;34625;47.176;27.548;2023-01-15T17:50:14;19.50;;;10.20;;
48805;SDS011;34625;47.176;27.548;2023-01-15T17:52:41;13.93;;;9.13;;
48805;SDS011;34625;47.176;27.548;2023-01-15T17:55:09;17.10;;;8.63;;
48805;SDS011;34625;47.176;27.548;2023-01-15T17:57:54;14.05;;;8.13;;
48805;SDS011;34625;47.176;27.548;2023-01-15T18:00:39;16.67;;;9.18;;